Time;durP1;ratioP1;P1;durP2;ratioP2;P2;SDS_P1;SDS_P2;PMS_P1;PMS_P2;Temp;Humidity;BMP_temperature;BMP_pressure;BME280_temperature;BME280_humidity;BME280_pressure;Samples;Min_cycle;Max_cycle;Signal;HPM_P1;HPM_P2
2023/01/10 00:01:38;;;;;;;4.18;2.45;;;7.50;73.50;;;;;;5101717;28;20031;-64
2023/01/10 00:04:04;;;;;;;6.13;2.78;;;7.50;74.20;;;;;;5096002;28;20052;-65
2023/01/10 00:06:30;;;;;;;5.68;2.20;;;7.50;73.50;;;;;;5100514;28;20020;-64
2023/01/10 00:08:56;;;;;;;8.65;3.20;;;7.50;73.60;;;;;;5095009;28;20032;-66
2023/01/10 00:14:07;;;;;;;7.40;2.30;;;7.50;73.60;;;;;;5095961;28;20518;-64
2023/01/10 00:16:41;;;;;;;7.00;2.60;;;7.50;73.60;;;;;;5094578;28;20056;-64
2023/01/10 00:19:09;;;;;;;6.60;1.85;;;7.50;73.50;;;;;;5094858;28;20027;-64
2023/01/10 00:21:36;;;;;;;3.17;1.38;;;7.50;73.60;;;;;;5092070;28;20027;-65
2023/01/10 00:24:35;;;;;;;4.55;1.80;;;7.40;73.60;;;;;;5108179;28;20024;-65
2023/01/10 00:26:53;;;;;;;3.30;1.70;;;7.50;73.60;;;;;;5092869;28;20039;-65
2023/01/10 00:29:21;;;;;;;2.67;1.50;;;7.40;73.50;;;;;;5108933;28;20493;-65
2023/01/10 00:31:48;;;;;;;3.28;1.40;;;7.40;73.50;;;;;;5100357;28;20037;-64
2023/01/10 00:34:14;;;;;;;4.35;1.40;;;7.40;73.50;;;;;;5104567;28;20021;-65
2023/01/10 00:36:40;;;;;;;6.78;1.98;;;7.40;73.60;;;;;;5098587;28;20101;-64
2023/01/10 00:39:06;;;;;;;4.75;1.80;;;7.40;73.60;;;;;;5104339;28;20119;-64
2023/01/10 00:44:16;;;;;;;4.30;2.00;;;7.40;73.70;;;;;;5099606;28;20078;-64
2023/01/10 00:46:42;;;;;;;5.22;2.03;;;7.40;73.60;;;;;;5101751;28;20036;-64
2023/01/10 00:49:08;;;;;;;3.13;1.83;;;7.40;73.70;;;;;;5100961;28;20053;-64
2023/01/10 00:51:34;;;;;;;4.38;2.00;;;7.40;73.80;;;;;;5098165;28;20407;-65
2023/01/10 00:53:59;;;;;;;5.10;1.60;;;7.40;73.80;;;;;;5097971;28;20044;-65
2023/01/10 00:56:25;;;;;;;4.40;1.60;;;7.40;73.80;;;;;;5097651;28;20544;-65
2023/01/10 00:58:51;;;;;;;2.55;1.20;;;7.40;73.90;;;;;;5104409;28;20281;-65
2023/01/10 01:01:16;;;;;;;3.10;1.33;;;7.40;74.00;;;;;;5095643;28;20024;-66
2023/01/10 01:03:42;;;;;;;3.60;1.40;;;7.40;74.00;;;;;;5079005;28;20051;-64
2023/01/10 01:06:08;;;;;;;2.35;1.40;;;7.40;73.90;;;;;;5079554;28;20021;-65
2023/01/10 01:08:34;;;;;;;3.30;1.20;;;7.40;73.80;;;;;;5086026;28;20077;-65
2023/01/10 01:10:59;;;;;;;1.65;0.80;;;7.40;73.50;;;;;;5085126;28;20054;-65
2023/01/10 01:13:25;;;;;;;1.05;0.90;;;7.40;73.30;;;;;;5087603;28;20051;-65
2023/01/10 01:15:51;;;;;;;0.80;0.80;;;7.40;73.30;;;;;;5087943;28;20039;-65
2023/01/10 01:18:19;;;;;;;0.98;0.70;;;7.30;73.20;;;;;;5031685;28;20025;-64
2023/01/10 01:20:46;;;;;;;1.58;0.90;;;7.30;73.40;;;;;;5083814;28;20024;-65
2023/01/10 01:23:13;;;;;;;1.63;1.00;;;7.30;73.40;;;;;;5088290;28;20075;-64
2023/01/10 01:25:39;;;;;;;1.67;0.85;;;7.20;73.20;;;;;;5084012;28;20119;-65
2023/01/10 01:28:05;;;;;;;1.08;0.80;;;7.20;73.20;;;;;;5089503;28;20028;-64
2023/01/10 01:30:31;;;;;;;2.35;1.10;;;7.20;73.20;;;;;;5090767;28;20032;-64
2023/01/10 01:32:56;;;;;;;3.00;0.95;;;7.20;73.40;;;;;;5083751;28;20486;-65
2023/01/10 01:35:23;;;;;;;0.80;0.80;;;7.10;73.20;;;;;;5089424;28;20024;-64
2023/01/10 01:37:50;;;;;;;0.68;0.68;;;7.10;73.30;;;;;;5094402;28;20022;-64
2023/01/10 01:40:18;;;;;;;0.90;0.90;;;7.10;73.40;;;;;;5088319;28;20028;-64
2023/01/10 01:42:45;;;;;;;0.82;0.82;;;7.00;73.20;;;;;;5084537;28;20024;-64
2023/01/10 01:45:13;;;;;;;0.73;0.73;;;7.00;73.30;;;;;;5085521;28;20048;-64
2023/01/10 01:48:01;;;;;;;1.52;0.90;;;7.00;74.10;;;;;;5089802;28;20024;-63
2023/01/10 01:50:30;;;;;;;1.02;0.70;;;7.00;73.70;;;;;;5074260;28;20060;-64
2023/01/10 01:52:59;;;;;;;0.80;0.80;;;6.90;73.60;;;;;;5078297;28;20064;-65
2023/01/10 01:55:28;;;;;;;2.05;0.88;;;7.00;73.80;;;;;;5085207;28;20059;-65
2023/01/10 01:57:57;;;;;;;2.15;0.70;;;6.90;73.80;;;;;;5086586;28;20419;-65
2023/01/10 02:00:22;;;;;;;0.80;0.80;;;6.90;73.80;;;;;;5087739;28;20027;-64
2023/01/10 02:02:54;;;;;;;1.15;0.93;;;6.90;73.80;;;;;;5077269;28;20025;-65
2023/01/10 02:05:21;;;;;;;0.73;0.73;;;6.90;74.10;;;;;;5089410;28;20012;-64
2023/01/10 02:07:51;;;;;;;1.02;0.80;;;6.90;73.80;;;;;;5077947;28;20016;-64
2023/01/10 02:10:25;;;;;;;0.90;0.90;;;6.90;73.90;;;;;;5081616;28;20101;-65
2023/01/10 02:12:54;;;;;;;1.02;1.00;;;6.90;74.10;;;;;;5085347;28;20079;-65
2023/01/10 02:15:20;;;;;;;0.70;0.70;;;6.90;74.00;;;;;;5080732;28;20020;-65
2023/01/10 02:17:49;;;;;;;0.88;0.88;;;6.90;73.90;;;;;;5085301;28;20032;-66
2023/01/10 02:20:16;;;;;;;1.42;0.80;;;6.90;74.10;;;;;;5088070;28;20430;-66
2023/01/10 02:23:03;;;;;;;0.70;0.70;;;6.90;74.20;;;;;;5077059;28;20029;-66
2023/01/10 02:25:40;;;;;;;0.80;0.80;;;6.90;74.20;;;;;;5082709;28;20028;-64
2023/01/10 02:28:41;;;;;;;1.35;0.80;;;6.90;73.90;;;;;;5094233;28;20024;-64
2023/01/10 02:31:06;;;;;;;0.95;0.93;;;6.80;73.90;;;;;;5079882;28;20044;-65
2023/01/10 02:33:53;;;;;;;0.80;0.80;;;6.90;73.90;;;;;;5084289;28;20028;-65
2023/01/10 02:36:28;;;;;;;0.80;0.80;;;6.90;74.30;;;;;;5080380;28;20024;-63
2023/01/10 02:39:08;;;;;;;0.73;0.73;;;6.80;74.10;;;;;;5072602;28;20021;-64
2023/01/10 02:41:39;;;;;;;0.80;0.80;;;6.80;74.50;;;;;;5073733;28;20036;-64
2023/01/10 02:44:14;;;;;;;0.82;0.82;;;6.80;74.40;;;;;;5086337;28;20076;-64
2023/01/10 02:46:41;;;;;;;1.17;0.90;;;6.80;74.40;;;;;;5079101;28;20033;-64
2023/01/10 02:49:06;;;;;;;0.80;0.80;;;6.80;74.30;;;;;;5079306;28;20020;-64
2023/01/10 02:51:32;;;;;;;0.98;0.80;;;6.90;74.60;;;;;;5077721;28;20098;-65
2023/01/10 02:54:22;;;;;;;0.75;0.75;;;6.90;74.20;;;;;;5082420;28;20021;-64
2023/01/10 02:57:12;;;;;;;0.85;0.77;;;6.90;74.70;;;;;;5075455;28;20025;-65
2023/01/10 02:59:56;;;;;;;0.77;0.77;;;6.80;74.40;;;;;;5094104;28;20459;-66
2023/01/10 03:02:49;;;;;;;0.80;0.80;;;6.80;74.30;;;;;;5082884;28;20038;-66
2023/01/10 03:05:50;;;;;;;1.08;0.95;;;6.80;74.30;;;;;;5077648;28;20108;-65
2023/01/10 03:08:40;;;;;;;1.02;0.70;;;6.80;74.20;;;;;;5071159;28;20170;-64
2023/01/10 03:11:08;;;;;;;1.33;0.80;;;6.80;74.60;;;;;;5064043;28;20040;-66
2023/01/10 03:13:37;;;;;;;0.80;0.80;;;6.80;74.40;;;;;;5061485;28;20128;-64
2023/01/10 03:16:06;;;;;;;0.80;0.80;;;6.80;74.50;;;;;;5058176;28;20063;-64
2023/01/10 03:18:54;;;;;;;0.80;0.80;;;6.90;74.80;;;;;;5063034;28;20029;-66
2023/01/10 03:21:22;;;;;;;0.80;0.77;;;6.90;74.80;;;;;;5049731;28;20049;-65
2023/01/10 03:23:51;;;;;;;1.42;0.90;;;6.90;74.80;;;;;;5063560;28;20436;-66
2023/01/10 03:26:29;;;;;;;0.70;0.70;;;7.00;74.80;;;;;;5061527;28;20127;-65
2023/01/10 03:29:01;;;;;;;0.70;0.70;;;6.90;74.70;;;;;;5069087;28;20527;-65
2023/01/10 03:31:38;;;;;;;1.00;0.70;;;7.00;74.50;;;;;;5049887;28;20041;-64
2023/01/10 03:34:04;;;;;;;1.15;0.65;;;7.00;74.50;;;;;;5058423;28;20048;-63
2023/01/10 03:36:39;;;;;;;0.60;0.60;;;7.00;74.20;;;;;;5057297;28;20127;-64
2023/01/10 03:39:33;;;;;;;0.70;0.70;;;7.00;73.90;;;;;;5056867;28;20032;-65
2023/01/10 03:42:05;;;;;;;0.77;0.77;;;7.00;74.00;;;;;;5067762;28;20048;-64
2023/01/10 03:44:50;;;;;;;0.70;0.70;;;6.90;74.50;;;;;;5074725;28;20016;-64
2023/01/10 03:47:45;;;;;;;1.70;0.70;;;6.90;73.80;;;;;;5073452;28;20028;-64
2023/01/10 03:50:16;;;;;;;0.80;0.80;;;6.90;73.80;;;;;;5089846;28;20044;-64
2023/01/10 03:52:42;;;;;;;0.50;0.50;;;6.80;73.50;;;;;;5082867;28;20040;-65
2023/01/10 03:55:13;;;;;;;0.50;0.50;;;6.80;73.50;;;;;;5083134;28;20024;-64
2023/01/10 03:57:41;;;;;;;0.60;0.60;;;6.80;73.80;;;;;;5079511;28;20059;-65
2023/01/10 04:00:08;;;;;;;0.60;0.60;;;6.70;73.90;;;;;;5091795;28;20071;-64
2023/01/10 04:02:34;;;;;;;0.60;0.60;;;6.70;74.10;;;;;;5089577;28;20524;-64
2023/01/10 04:04:59;;;;;;;1.10;0.73;;;6.70;74.00;;;;;;5094466;28;20063;-64
2023/01/10 04:07:26;;;;;;;0.70;0.70;;;6.70;73.70;;;;;;5091765;28;20112;-64
2023/01/10 04:09:52;;;;;;;0.60;0.60;;;6.70;73.80;;;;;;5085585;28;20095;-64
2023/01/10 04:12:17;;;;;;;0.77;0.77;;;6.70;73.90;;;;;;5094932;28;20032;-65
2023/01/10 04:14:46;;;;;;;3.42;0.60;;;6.60;74.10;;;;;;5083049;28;20029;-65
2023/01/10 04:17:13;;;;;;;0.60;0.60;;;6.60;74.00;;;;;;5081579;28;20037;-64
2023/01/10 04:19:39;;;;;;;0.73;0.60;;;6.60;73.90;;;;;;5087198;28;20107;-64
2023/01/10 04:22:05;;;;;;;0.68;0.68;;;6.60;73.90;;;;;;5084606;28;20488;-64
2023/01/10 04:24:31;;;;;;;0.70;0.70;;;6.60;74.10;;;;;;5089679;28;20028;-64
2023/01/10 04:26:56;;;;;;;0.65;0.65;;;6.50;74.00;;;;;;5085372;28;20017;-64
2023/01/10 04:29:22;;;;;;;0.80;0.80;;;6.50;74.10;;;;;;5086966;28;20020;-65
2023/01/10 04:31:48;;;;;;;0.60;0.60;;;6.50;74.30;;;;;;5071926;28;20392;-64
2023/01/10 04:34:14;;;;;;;0.70;0.70;;;6.50;74.20;;;;;;5084717;28;20459;-63
2023/01/10 04:36:41;;;;;;;0.77;0.77;;;6.50;74.00;;;;;;5089195;28;20033;-65
2023/01/10 04:39:07;;;;;;;0.70;0.70;;;6.50;74.10;;;;;;5082070;28;20021;-64
2023/01/10 04:41:32;;;;;;;0.73;0.70;;;6.50;74.20;;;;;;5088916;28;20165;-65
2023/01/10 04:43:58;;;;;;;0.60;0.60;;;6.50;74.10;;;;;;5082969;28;20048;-65
2023/01/10 04:46:24;;;;;;;0.98;0.70;;;6.50;74.10;;;;;;5081813;28;20031;-64
2023/01/10 04:48:50;;;;;;;0.63;0.63;;;6.50;74.30;;;;;;5086195;28;20037;-64
2023/01/10 04:51:16;;;;;;;0.73;0.73;;;6.50;74.50;;;;;;5092756;28;20054;-66
2023/01/10 04:53:41;;;;;;;1.05;0.70;;;6.50;74.50;;;;;;5090907;28;20082;-65
2023/01/10 04:56:09;;;;;;;0.80;0.80;;;6.50;74.60;;;;;;5087362;28;20083;-64
2023/01/10 04:58:36;;;;;;;1.23;0.82;;;6.50;74.70;;;;;;5087563;28;20098;-66
2023/01/10 05:01:20;;;;;;;2.60;0.70;;;6.60;74.60;;;;;;5092691;28;20015;-65
2023/01/10 05:03:51;;;;;;;0.70;0.70;;;6.50;74.50;;;;;;5084159;28;20012;-65
2023/01/10 05:06:17;;;;;;;1.10;1.00;;;6.60;74.40;;;;;;5074743;28;20090;-64
2023/01/10 05:08:43;;;;;;;1.45;1.10;;;6.60;74.30;;;;;;5094229;28;20032;-64
2023/01/10 05:11:09;;;;;;;8.02;1.42;;;6.60;74.50;;;;;;5091315;28;20060;-66
2023/01/10 05:13:35;;;;;;;1.33;1.08;;;6.60;74.50;;;;;;5085646;28;20475;-65
2023/01/10 05:16:01;;;;;;;3.83;1.40;;;6.60;74.60;;;;;;5079688;28;20039;-66
2023/01/10 05:18:27;;;;;;;4.82;1.40;;;6.60;74.70;;;;;;5087309;28;20028;-66
2023/01/10 05:21:06;;;;;;;1.63;1.30;;;6.60;74.40;;;;;;5084365;28;20024;-65
2023/01/10 05:23:32;;;;;;;4.55;1.60;;;6.60;74.70;;;;;;5083811;28;20025;-65
2023/01/10 05:26:08;;;;;;;3.10;1.70;;;6.60;74.70;;;;;;5079342;28;20029;-67
2023/01/10 05:28:34;;;;;;;6.70;1.90;;;6.60;74.80;;;;;;5078453;28;20391;-66
2023/01/10 05:30:59;;;;;;;5.10;1.38;;;6.60;75.00;;;;;;5086300;28;20029;-65
2023/01/10 05:33:25;;;;;;;5.20;1.58;;;6.60;74.90;;;;;;5085493;28;20029;-66
2023/01/10 05:35:50;;;;;;;3.47;1.60;;;6.60;74.90;;;;;;5077035;28;20032;-65
2023/01/10 05:38:16;;;;;;;5.03;1.50;;;6.60;74.70;;;;;;5086723;28;20440;-64
2023/01/10 05:40:42;;;;;;;10.05;5.53;;;6.60;74.70;;;;;;5094549;28;20102;-64
2023/01/10 05:43:07;;;;;;;3.70;2.00;;;6.60;74.70;;;;;;5071731;28;20028;-65
2023/01/10 05:45:33;;;;;;;3.75;1.60;;;6.60;74.60;;;;;;5083019;28;20504;-63
2023/01/10 05:47:59;;;;;;;8.02;1.65;;;6.70;74.60;;;;;;5092733;28;20028;-64
2023/01/10 05:50:24;;;;;;;7.18;1.95;;;6.60;74.30;;;;;;5082935;28;20057;-64
2023/01/10 05:52:50;;;;;;;3.65;2.30;;;6.70;74.40;;;;;;5091223;28;20031;-63
2023/01/10 05:55:16;;;;;;;6.50;1.70;;;6.70;74.50;;;;;;5087903;28;20024;-64
2023/01/10 05:57:41;;;;;;;5.75;1.80;;;6.70;74.30;;;;;;5079618;28;20029;-63
2023/01/10 06:00:07;;;;;;;5.93;1.90;;;6.70;74.20;;;;;;5084478;28;20024;-64
2023/01/10 06:02:33;;;;;;;4.25;1.67;;;6.70;74.20;;;;;;5081280;28;20035;-63
2023/01/10 06:04:59;;;;;;;7.32;2.80;;;6.70;74.20;;;;;;5083711;28;20052;-64
2023/01/10 06:07:24;;;;;;;5.63;2.13;;;6.70;74.20;;;;;;5081668;28;20032;-63
2023/01/10 06:09:50;;;;;;;7.78;1.98;;;6.70;74.90;;;;;;5080043;28;20053;-63
2023/01/10 06:12:18;;;;;;;4.82;1.60;;;6.80;74.20;;;;;;5079543;28;20043;-64
2023/01/10 06:14:44;;;;;;;4.97;1.90;;;6.80;74.20;;;;;;5081523;28;20059;-64
2023/01/10 06:17:10;;;;;;;8.23;2.15;;;6.70;74.00;;;;;;5080355;28;20025;-64
2023/01/10 06:19:35;;;;;;;3.55;1.73;;;6.80;73.90;;;;;;5077899;28;20021;-64
2023/01/10 06:22:02;;;;;;;4.93;1.90;;;6.80;73.90;;;;;;5085778;28;20097;-64
2023/01/10 06:24:28;;;;;;;7.75;2.20;;;6.80;73.90;;;;;;5077337;28;20103;-64
2023/01/10 06:26:54;;;;;;;7.53;2.13;;;6.70;73.80;;;;;;5082352;28;20029;-64
2023/01/10 06:29:19;;;;;;;4.32;1.70;;;6.80;73.90;;;;;;5089307;28;20024;-64
2023/01/10 06:31:45;;;;;;;8.20;2.00;;;6.80;74.00;;;;;;5082268;28;20040;-63
2023/01/10 06:34:11;;;;;;;4.05;1.70;;;6.80;73.90;;;;;;5091862;28;20038;-63
2023/01/10 06:36:36;;;;;;;3.47;1.73;;;6.80;73.70;;;;;;5074678;28;20021;-63
2023/01/10 06:39:02;;;;;;;8.40;2.10;;;6.80;73.70;;;;;;5086341;28;20081;-63
2023/01/10 06:41:28;;;;;;;8.60;2.70;;;6.80;73.60;;;;;;5094627;28;20082;-63
2023/01/10 06:43:53;;;;;;;8.38;2.40;;;6.80;73.50;;;;;;5089213;28;20505;-62
2023/01/10 06:46:19;;;;;;;8.60;2.58;;;6.80;73.50;;;;;;5088641;28;20081;-62
2023/01/10 06:48:45;;;;;;;6.10;1.98;;;6.80;73.50;;;;;;5072455;28;20396;-62
2023/01/10 06:51:13;;;;;;;6.38;2.38;;;6.90;73.70;;;;;;5084242;28;20103;-64
2023/01/10 06:53:39;;;;;;;7.63;2.10;;;6.90;73.80;;;;;;5082703;28;20042;-63
2023/01/10 06:56:05;;;;;;;7.47;2.58;;;6.90;73.90;;;;;;5079314;28;20035;-64
2023/01/10 06:58:31;;;;;;;9.60;2.70;;;6.90;73.80;;;;;;5091809;28;20433;-64
2023/01/10 07:00:57;;;;;;;7.53;2.05;;;6.90;73.70;;;;;;5082954;28;20574;-65
2023/01/10 07:03:23;;;;;;;8.07;2.20;;;6.90;73.70;;;;;;5079373;28;20032;-62
2023/01/10 07:05:48;;;;;;;6.53;2.20;;;6.90;73.70;;;;;;5086882;28;20048;-64
2023/01/10 07:08:14;;;;;;;9.57;2.30;;;7.00;73.80;;;;;;5082772;28;20047;-65
2023/01/10 07:10:41;;;;;;;5.30;2.17;;;7.00;73.60;;;;;;5079415;28;20032;-66
2023/01/10 07:13:07;;;;;;;7.10;2.22;;;7.00;73.50;;;;;;5076632;28;20027;-63
2023/01/10 07:15:32;;;;;;;6.28;2.15;;;7.00;73.30;;;;;;5079620;28;20028;-63
2023/01/10 07:17:58;;;;;;;5.82;2.00;;;7.00;73.30;;;;;;5084350;28;20028;-63
2023/01/10 07:20:24;;;;;;;10.55;2.33;;;7.00;73.30;;;;;;5078734;28;20391;-63
2023/01/10 07:22:58;;;;;;;7.68;2.10;;;7.00;73.40;;;;;;5080952;28;20054;-63
2023/01/10 07:25:25;;;;;;;5.60;1.65;;;6.90;73.10;;;;;;5075917;28;20044;-64
2023/01/10 07:27:54;;;;;;;9.73;2.15;;;6.90;73.00;;;;;;5089340;28;20038;-64
2023/01/10 07:30:20;;;;;;;6.93;1.88;;;6.90;73.00;;;;;;5083553;28;20032;-65
2023/01/10 07:32:59;;;;;;;8.10;2.10;;;6.90;73.00;;;;;;5082219;28;20059;-65
2023/01/10 07:35:25;;;;;;;7.88;2.08;;;6.90;73.00;;;;;;5084177;28;20079;-63
2023/01/10 07:37:51;;;;;;;6.70;2.28;;;6.90;73.00;;;;;;5080682;28;20047;-66
2023/01/10 07:40:17;;;;;;;13.93;2.53;;;6.90;72.90;;;;;;5085381;28;20017;-65
2023/01/10 07:42:42;;;;;;;6.65;2.10;;;6.90;72.70;;;;;;5083078;28;20090;-65
2023/01/10 07:45:08;;;;;;;7.13;2.00;;;6.90;72.90;;;;;;5091080;28;20035;-65
2023/01/10 07:47:34;;;;;;;5.15;1.80;;;6.90;72.90;;;;;;5088950;28;20035;-64
2023/01/10 07:49:59;;;;;;;7.40;2.40;;;6.90;73.80;;;;;;5085536;28;20064;-65
2023/01/10 07:52:25;;;;;;;6.82;2.20;;;6.90;73.10;;;;;;5083041;28;20426;-65
2023/01/10 07:54:52;;;;;;;6.60;2.20;;;6.90;73.20;;;;;;5084332;28;20084;-64
2023/01/10 07:57:18;;;;;;;7.60;1.83;;;6.90;73.00;;;;;;5088540;28;20020;-65
2023/01/10 07:59:44;;;;;;;8.00;2.67;;;6.90;72.80;;;;;;5084077;28;20551;-65
2023/01/10 08:02:10;;;;;;;7.30;2.60;;;7.00;72.80;;;;;;5079931;28;20088;-64
2023/01/10 08:04:37;;;;;;;9.38;2.22;;;7.00;72.50;;;;;;5083187;28;20031;-64
2023/01/10 08:07:03;;;;;;;4.78;2.20;;;6.90;72.70;;;;;;5088169;28;20028;-63
2023/01/10 08:09:28;;;;;;;5.47;2.15;;;7.00;72.70;;;;;;5079237;28;20024;-64
2023/01/10 08:11:54;;;;;;;8.32;2.45;;;6.90;72.60;;;;;;5084378;28;20051;-64
2023/01/10 08:14:20;;;;;;;7.53;1.90;;;6.90;72.50;;;;;;5091547;28;20474;-64
2023/01/10 08:16:45;;;;;;;4.80;2.10;;;6.90;72.50;;;;;;5086122;28;20415;-63
2023/01/10 08:19:15;;;;;;;6.40;2.03;;;6.90;72.70;;;;;;5028883;28;20025;-64
2023/01/10 08:21:41;;;;;;;8.02;3.05;;;6.90;72.70;;;;;;5092560;28;20020;-64
2023/01/10 08:24:07;;;;;;;9.60;3.03;;;7.00;72.70;;;;;;5089830;28;20028;-64
2023/01/10 08:26:33;;;;;;;10.38;2.65;;;7.00;72.60;;;;;;5095254;28;20024;-65
2023/01/10 08:29:00;;;;;;;13.43;2.70;;;7.00;72.70;;;;;;5087040;28;20024;-65
2023/01/10 08:31:25;;;;;;;7.82;2.72;;;7.00;72.50;;;;;;5071342;28;20032;-64
2023/01/10 08:33:51;;;;;;;14.05;3.03;;;7.00;72.50;;;;;;5079874;28;20034;-64
2023/01/10 08:36:18;;;;;;;8.05;2.75;;;7.10;72.50;;;;;;5082974;28;20025;-64
2023/01/10 08:38:44;;;;;;;8.85;2.22;;;7.10;72.40;;;;;;5092152;28;20369;-64
2023/01/10 08:41:10;;;;;;;10.57;2.85;;;7.10;72.40;;;;;;5079425;28;20040;-63
2023/01/10 08:43:36;;;;;;;9.20;2.03;;;7.10;72.30;;;;;;5082033;28;20044;-64
2023/01/10 08:46:02;;;;;;;6.28;2.53;;;7.10;72.20;;;;;;5086410;28;20035;-62
2023/01/10 08:48:27;;;;;;;11.80;2.33;;;7.10;72.40;;;;;;5092646;28;20080;-65
2023/01/10 08:50:53;;;;;;;9.63;2.90;;;7.20;72.40;;;;;;5095067;28;20074;-65
2023/01/10 08:53:18;;;;;;;6.65;2.30;;;7.20;72.30;;;;;;5082051;28;20050;-65
2023/01/10 08:55:44;;;;;;;5.22;2.10;;;7.20;72.30;;;;;;5086332;28;20024;-65
2023/01/10 08:58:10;;;;;;;8.85;2.88;;;7.30;72.40;;;;;;5082024;28;20017;-65
2023/01/10 09:00:36;;;;;;;6.38;2.10;;;7.30;72.20;;;;;;5087239;28;20012;-65
2023/01/10 09:03:01;;;;;;;12.15;2.33;;;7.30;72.10;;;;;;5086359;28;20211;-65
2023/01/10 09:05:27;;;;;;;8.85;2.65;;;7.40;72.00;;;;;;5088566;28;20020;-66
2023/01/10 09:08:00;;;;;;;8.82;2.20;;;7.40;72.10;;;;;;5080115;28;20031;-65
2023/01/10 09:10:28;;;;;;;8.52;2.20;;;7.50;72.00;;;;;;5079378;28;20068;-65
2023/01/10 09:12:53;;;;;;;7.57;2.03;;;7.50;71.80;;;;;;5084211;28;20029;-65
2023/01/10 09:15:37;;;;;;;5.97;2.08;;;7.50;71.60;;;;;;5085609;28;20047;-65
2023/01/10 09:18:05;;;;;;;7.05;2.42;;;7.50;71.60;;;;;;5080114;28;20070;-65
2023/01/10 09:20:36;;;;;;;9.02;2.15;;;7.50;71.60;;;;;;5082330;28;20029;-65
2023/01/10 09:23:16;;;;;;;7.85;2.15;;;7.60;71.50;;;;;;5083214;28;20047;-65
2023/01/10 09:25:42;;;;;;;7.88;3.00;;;7.60;71.50;;;;;;5089145;28;20459;-66
2023/01/10 09:28:08;;;;;;;10.00;2.75;;;7.60;71.50;;;;;;5085647;28;20024;-65
2023/01/10 09:30:34;;;;;;;9.30;2.17;;;7.60;71.20;;;;;;5084970;28;20047;-65
2023/01/10 09:33:00;;;;;;;8.65;2.83;;;7.60;71.20;;;;;;5082637;28;20029;-65
2023/01/10 09:35:28;;;;;;;6.53;2.03;;;7.60;71.30;;;;;;5078124;28;20487;-65
2023/01/10 09:37:55;;;;;;;9.85;2.55;;;7.60;71.20;;;;;;5079157;28;20037;-64
2023/01/10 09:40:47;;;;;;;7.70;2.42;;;7.60;71.20;;;;;;5081851;28;20039;-65
2023/01/10 09:43:40;;;;;;;6.32;1.85;;;7.70;71.00;;;;;;5077633;28;20037;-65
2023/01/10 09:46:27;;;;;;;7.43;2.13;;;7.70;71.00;;;;;;5072961;28;20025;-65
2023/01/10 09:49:07;;;;;;;7.70;1.98;;;7.70;70.90;;;;;;5079266;28;20044;-65
2023/01/10 09:51:44;;;;;;;5.30;1.88;;;7.70;70.70;;;;;;5076432;28;20059;-64
2023/01/10 09:54:34;;;;;;;5.38;1.95;;;7.80;70.40;;;;;;5079255;28;20031;-64
2023/01/10 09:57:00;;;;;;;5.65;2.30;;;7.80;70.10;;;;;;5084837;28;20313;-64
2023/01/10 09:59:36;;;;;;;6.13;2.15;;;7.80;70.60;;;;;;5088695;28;20032;-65
2023/01/10 10:02:27;;;;;;;9.38;2.50;;;7.80;70.40;;;;;;5082264;28;20084;-66
2023/01/10 10:05:01;;;;;;;8.45;2.08;;;7.80;70.20;;;;;;5075940;28;20102;-67
2023/01/10 10:07:27;;;;;;;5.13;1.85;;;7.80;70.30;;;;;;5089978;28;20487;-64
2023/01/10 10:09:52;;;;;;;5.72;2.22;;;7.90;70.60;;;;;;5085801;28;20081;-66
2023/01/10 10:12:27;;;;;;;5.05;1.98;;;7.90;70.60;;;;;;5079734;28;20054;-65
2023/01/10 10:15:17;;;;;;;12.07;1.90;;;7.90;70.50;;;;;;5087654;28;20294;-65
2023/01/10 10:17:42;;;;;;;9.02;1.55;;;7.90;70.20;;;;;;5084000;28;20033;-66
2023/01/10 10:20:33;;;;;;;9.15;2.13;;;8.00;70.40;;;;;;5084063;28;20024;-65
2023/01/10 10:23:10;;;;;;;8.45;1.80;;;8.00;70.10;;;;;;5087745;28;20024;-65
2023/01/10 10:25:47;;;;;;;8.20;2.08;;;8.00;70.10;;;;;;5081891;28;20025;-66
2023/01/10 10:28:45;;;;;;;7.97;1.80;;;8.00;70.10;;;;;;5082385;28;20025;-65
2023/01/10 10:31:12;;;;;;;6.25;1.60;;;8.00;70.00;;;;;;5077879;28;20032;-65
2023/01/10 10:33:58;;;;;;;5.53;1.80;;;8.00;70.20;;;;;;5083736;28;20020;-65
2023/01/10 10:36:33;;;;;;;5.50;1.73;;;8.00;70.10;;;;;;5066348;28;20325;-65
2023/01/10 10:39:01;;;;;;;7.15;1.83;;;8.00;70.10;;;;;;5076109;28;20043;-65
2023/01/10 10:41:51;;;;;;;6.18;1.67;;;8.00;70.10;;;;;;5082866;28;20032;-65
2023/01/10 10:45:03;;;;;;;4.68;1.73;;;8.00;70.00;;;;;;5090338;28;20033;-66
2023/01/10 10:47:34;;;;;;;7.32;1.80;;;8.00;70.10;;;;;;5035229;28;20025;-64
2023/01/10 10:50:26;;;;;;;9.02;2.28;;;8.00;70.30;;;;;;5031967;28;20105;-65
2023/01/10 10:52:51;;;;;;;7.53;2.78;;;8.00;69.90;;;;;;5035803;28;20113;-64
2023/01/10 10:55:27;;;;;;;4.28;1.70;;;8.00;70.30;;;;;;5037377;28;20106;-65
2023/01/10 10:57:54;;;;;;;4.45;1.67;;;8.00;70.30;;;;;;5037636;28;20049;-65
2023/01/10 11:00:21;;;;;;;7.88;2.00;;;8.10;70.40;;;;;;5040492;28;20472;-64
2023/01/10 11:02:56;;;;;;;5.53;1.90;;;8.10;70.80;;;;;;5038663;28;20053;-65
2023/01/10 11:05:36;;;;;;;12.13;2.22;;;8.10;69.80;;;;;;5039832;28;20040;-65
2023/01/10 11:08:22;;;;;;;9.93;2.08;;;8.10;69.70;;;;;;5047229;28;20045;-65
2023/01/10 11:10:56;;;;;;;4.70;1.80;;;8.10;69.90;;;;;;5037265;28;20037;-65
2023/01/10 11:13:34;;;;;;;8.20;1.67;;;8.10;69.80;;;;;;5034165;28;20167;-65
2023/01/10 11:16:05;;;;;;;11.18;3.15;;;8.10;69.80;;;;;;5037236;28;20104;-64
2023/01/10 11:18:32;;;;;;;13.30;3.22;;;8.10;69.60;;;;;;5036514;28;20455;-65
2023/01/10 11:21:07;;;;;;;12.30;2.65;;;8.10;69.70;;;;;;5053133;28;20033;-65
2023/01/10 11:23:32;;;;;;;6.03;2.45;;;8.00;69.50;;;;;;5081459;28;22214;-64
2023/01/10 11:25:59;;;;;;;11.18;2.58;;;8.10;69.60;;;;;;5088056;28;20024;-66
2023/01/10 11:28:28;;;;;;;9.48;2.70;;;8.10;69.50;;;;;;5085572;28;20095;-66
2023/01/10 11:30:55;;;;;;;6.97;2.15;;;8.00;69.60;;;;;;5083210;28;20127;-65
2023/01/10 11:33:25;;;;;;;7.68;2.20;;;8.10;69.70;;;;;;5086049;28;20188;-66
2023/01/10 11:36:11;;;;;;;6.50;2.00;;;8.10;69.70;;;;;;5087072;28;20020;-63
2023/01/10 11:38:37;;;;;;;10.13;2.33;;;8.10;69.50;;;;;;5078830;28;20024;-64
2023/01/10 11:41:18;;;;;;;11.60;2.35;;;8.10;69.30;;;;;;5081888;28;20035;-64
2023/01/10 11:43:43;;;;;;;9.18;2.67;;;8.20;69.00;;;;;;5079844;28;20024;-65
2023/01/10 11:46:16;;;;;;;8.45;2.58;;;8.20;69.50;;;;;;5081110;28;20103;-64
2023/01/10 11:48:49;;;;;;;7.47;1.92;;;8.20;69.30;;;;;;5079891;28;20021;-64
2023/01/10 11:51:23;;;;;;;9.02;2.35;;;8.30;69.30;;;;;;5082941;28;20040;-64
2023/01/10 11:53:57;;;;;;;13.90;3.67;;;8.30;69.20;;;;;;5077480;28;20071;-64
2023/01/10 11:56:26;;;;;;;6.38;2.97;;;8.40;68.90;;;;;;5080853;28;20093;-63
2023/01/10 11:58:53;;;;;;;9.27;2.75;;;8.30;68.50;;;;;;5092071;28;20033;-65
2023/01/10 12:01:32;;;;;;;13.20;2.50;;;8.40;68.20;;;;;;5086496;28;20055;-65
2023/01/10 12:03:58;;;;;;;7.60;2.92;;;8.40;67.30;;;;;;5074300;28;20036;-65
2023/01/10 12:06:25;;;;;;;10.98;3.25;;;8.30;67.60;;;;;;5082576;28;20042;-65
2023/01/10 12:08:54;;;;;;;11.32;2.55;;;8.30;67.60;;;;;;5085954;28;20032;-64
2023/01/10 12:11:31;;;;;;;12.75;2.30;;;8.30;67.80;;;;;;5081938;28;20037;-64
2023/01/10 12:13:59;;;;;;;6.05;2.20;;;8.30;67.30;;;;;;5080897;28;20024;-65
2023/01/10 12:16:25;;;;;;;6.10;1.90;;;8.30;67.70;;;;;;5080558;28;20046;-65
2023/01/10 12:18:53;;;;;;;6.80;2.40;;;8.30;67.90;;;;;;5085953;28;20084;-65
2023/01/10 12:21:36;;;;;;;13.00;2.88;;;8.40;67.80;;;;;;5079934;28;20782;-65
2023/01/10 12:24:22;;;;;;;7.45;2.25;;;8.40;67.80;;;;;;5080881;28;20029;-65
2023/01/10 12:26:52;;;;;;;10.45;2.25;;;8.40;67.60;;;;;;5084108;28;20029;-64
2023/01/10 12:29:22;;;;;;;18.63;3.15;;;8.40;67.00;;;;;;5080349;28;20024;-65
2023/01/10 12:31:50;;;;;;;8.25;2.90;;;8.50;67.20;;;;;;5078416;28;20048;-65
2023/01/10 12:34:19;;;;;;;5.25;2.42;;;8.50;67.10;;;;;;5088252;28;20024;-65
2023/01/10 12:36:48;;;;;;;11.35;3.70;;;8.50;67.00;;;;;;5075753;28;20028;-65
2023/01/10 12:39:23;;;;;;;6.88;2.75;;;8.50;66.90;;;;;;5077855;28;20021;-64
2023/01/10 12:44:59;;;;;;;7.05;3.00;;;8.60;66.40;;;;;;5087471;28;20093;-65
2023/01/10 12:47:43;;;;;;;6.00;2.25;;;8.60;66.90;;;;;;5079857;28;20031;-64
2023/01/10 12:50:15;;;;;;;5.10;1.90;;;8.60;66.90;;;;;;5076331;28;20593;-65
2023/01/10 12:52:47;;;;;;;7.95;1.83;;;8.60;67.10;;;;;;5079691;28;20315;-65
2023/01/10 12:55:15;;;;;;;3.85;1.83;;;8.60;66.90;;;;;;5079178;28;20025;-66
2023/01/10 12:57:43;;;;;;;8.23;2.20;;;8.70;66.90;;;;;;5087476;28;20025;-65
2023/01/10 13:00:23;;;;;;;11.85;1.90;;;8.70;66.40;;;;;;5088487;28;20017;-64
2023/01/10 13:02:53;;;;;;;7.18;2.00;;;8.70;66.20;;;;;;5089203;28;20024;-66
2023/01/10 13:05:22;;;;;;;7.88;2.42;;;8.70;66.30;;;;;;5084878;28;20041;-63
2023/01/10 13:07:50;;;;;;;5.47;1.88;;;8.70;66.50;;;;;;5095667;28;20504;-65
2023/01/10 13:10:25;;;;;;;5.10;1.95;;;8.80;66.40;;;;;;5082906;28;20037;-65
2023/01/10 13:13:05;;;;;;;7.57;2.50;;;8.90;66.20;;;;;;5085309;28;20023;-64
2023/01/10 13:15:43;;;;;;;8.60;1.77;;;8.90;65.60;;;;;;5088023;28;20479;-65
2023/01/10 13:18:24;;;;;;;8.27;1.55;;;8.90;65.80;;;;;;5087573;28;20023;-66
2023/01/10 13:21:12;;;;;;;8.77;1.70;;;8.90;65.20;;;;;;5084350;28;20054;-64